Time;durP1;ratioP1;P1;durP2;ratioP2;P2;SDS_P1;SDS_P2;PMS_P1;PMS_P2;Temp;Humidity;BMP_temperature;BMP_pressure;BME280_temperature;BME280_humidity;BME280_pressure;Samples;Min_cycle;Max_cycle;Signal;HPM_P1;HPM_P2
2021/05/08 00:00:17;;;;;;;;;;;;;;;15.91;92.94;100419.02;1706252;83;20331;-78
2021/05/08 00:02:45;;;;;;;;;;;;;;;15.90;92.74;100414.75;1712175;83;20498;-81
2021/05/08 00:05:14;;;;;;;;;;;;;;;15.88;92.55;100412.28;1713555;83;21175;-77
2021/05/08 00:07:41;;;;;;;;;;;;;;;15.86;92.42;100414.20;1714357;83;20160;-77
2021/05/08 00:10:11;;;;;;;;;;;;;;;15.83;92.29;100413.17;1707987;83;20509;-78
2021/05/08 00:12:41;;;;;;;;;;;;;;;15.83;92.27;100405.33;1717424;83;20727;-77
2021/05/08 00:15:10;;;;;;;;;;;;;;;15.82;92.22;100406.31;1718923;83;20493;-76
2021/05/08 00:17:38;;;;;;;;;;;;;;;15.81;92.23;100415.12;1721812;83;21191;-80
2021/05/08 00:20:10;;;;;;;;;;;;;;;15.79;92.26;100408.38;1723936;83;20595;-74
2021/05/08 00:22:38;;;;;;;;;;;;;;;15.76;92.40;100407.36;1724105;82;20144;-74
2021/05/08 00:25:07;;;;;;;;;;;;;;;15.73;92.55;100401.09;1723512;83;20223;-76
2021/05/08 00:27:37;;;;;;;;;;;;;;;15.72;92.80;100400.74;1722915;83;20530;-75
2021/05/08 00:30:06;;;;;;;;;;;;;;;15.71;92.93;100400.39;1711461;83;21726;-77
2021/05/08 00:32:35;;;;;;;;;;;;;;;15.69;93.20;100395.80;1724237;83;20160;-75
2021/05/08 00:35:03;;;;;;;;;;;;;;;15.68;93.36;100386.28;1724217;82;20548;-78
2021/05/08 00:37:31;;;;;;;;;;;;;;;15.66;93.53;100383.83;1723997;83;20199;-77
2021/05/08 00:40:00;;;;;;;;;;;;;;;15.65;93.68;100376.94;1724011;83;20218;-77
2021/05/08 00:42:27;;;;;;;;;;;;;;;15.63;94.00;100374.95;1724024;83;21358;-76
2021/05/08 00:44:56;;;;;;;;;;;;;;;15.61;94.12;100374.25;1723959;83;20722;-82
2021/05/08 00:47:24;;;;;;;;;;;;;;;15.58;94.34;100363.23;1724130;83;20131;-79
2021/05/08 00:49:52;;;;;;;;;;;;;;;15.56;94.58;100370.41;1724038;82;20291;-77
2021/05/08 00:52:22;;;;;;;;;;;;;;;15.52;94.86;100362.02;1723379;83;20266;-78
2021/05/08 00:54:52;;;;;;;;;;;;;;;15.52;95.05;100360.70;1724632;82;22244;-81
2021/05/08 00:57:20;;;;;;;;;;;;;;;15.52;95.23;100354.17;1701228;83;20808;-79
2021/05/08 00:59:49;;;;;;;;;;;;;;;15.52;95.47;100355.95;1723603;83;20514;-79
2021/05/08 01:02:19;;;;;;;;;;;;;;;15.53;95.64;100355.00;1724178;83;21004;-80
2021/05/08 01:04:49;;;;;;;;;;;;;;;15.53;95.72;100348.46;1724553;83;20215;-77
2021/05/08 01:07:17;;;;;;;;;;;;;;;15.54;95.79;100349.61;1724159;82;22268;-77
2021/05/08 01:09:47;;;;;;;;;;;;;;;15.55;95.92;100339.98;1724040;83;20179;-80
2021/05/08 01:12:15;;;;;;;;;;;;;;;15.57;96.03;100332.84;1723682;83;20239;-84
2021/05/08 01:14:47;;;;;;;;;;;;;;;15.56;96.06;100332.48;1723908;82;20502;-80
2021/05/08 01:17:14;;;;;;;;;;;;;;;15.55;96.14;100324.29;1727895;82;20218;-77
2021/05/08 01:19:42;;;;;;;;;;;;;;;15.56;96.23;100325.47;1734831;82;22278;-79
2021/05/08 01:22:10;;;;;;;;;;;;;;;15.55;96.38;100321.67;1734663;82;20504;-76
2021/05/08 01:24:38;;;;;;;;;;;;;;;15.55;96.38;100320.37;1734474;82;20146;-73
2021/05/08 01:27:07;;;;;;;;;;;;;;;15.57;96.58;100330.22;1734401;82;20222;-82
2021/05/08 01:29:36;;;;;;;;;;;;;;;15.58;96.58;100338.39;1734688;82;20492;-78
2021/05/08 01:32:04;;;;;;;;;;;;;;;15.59;96.63;100348.73;1734392;82;21256;-77
2021/05/08 01:34:33;;;;;;;;;;;;;;;15.59;96.59;100346.11;1734578;82;20151;-78
2021/05/08 01:37:02;;;;;;;;;;;;;;;15.61;96.61;100346.78;1734609;82;20174;-75
2021/05/08 01:39:31;;;;;;;;;;;;;;;15.61;96.61;100342.86;1715101;82;20273;-77
2021/05/08 01:41:59;;;;;;;;;;;;;;;15.61;96.62;100330.26;1734536;82;20119;-83
2021/05/08 01:44:27;;;;;;;;;;;;;;;15.61;96.63;100331.09;1729930;82;22364;-76
2021/05/08 01:46:56;;;;;;;;;;;;;;;15.62;96.66;100331.44;1729985;82;20202;-76
2021/05/08 01:49:28;;;;;;;;;;;;;;;15.64;96.73;100329.97;1734731;82;20146;-74
2021/05/08 01:51:56;;;;;;;;;;;;;;;15.64;96.76;100319.52;1734463;82;20792;-74
2021/05/08 01:54:25;;;;;;;;;;;;;;;15.64;96.76;100321.65;1734556;82;20733;-76
2021/05/08 01:56:53;;;;;;;;;;;;;;;15.65;96.78;100325.09;1734654;82;22256;-76
2021/05/08 01:59:23;;;;;;;;;;;;;;;15.65;96.81;100320.69;1734421;82;20602;-75
2021/05/08 02:01:51;;;;;;;;;;;;;;;15.65;96.79;100318.08;1734727;82;20527;-79
2021/05/08 02:04:19;;;;;;;;;;;;;;;15.67;96.72;100317.44;1734457;82;20234;-76
2021/05/08 02:06:50;;;;;;;;;;;;;;;15.68;96.69;100317.80;1734632;82;20496;-77
2021/05/08 02:09:21;;;;;;;;;;;;;;;15.67;96.68;100308.28;1733926;82;21212;-78
2021/05/08 02:11:53;;;;;;;;;;;;;;;15.69;96.56;100315.53;1734501;82;20170;-81
2021/05/08 02:14:22;;;;;;;;;;;;;;;15.71;96.46;100316.20;1734583;82;20515;-78
2021/05/08 02:16:50;;;;;;;;;;;;;;;15.72;96.36;100315.72;1733691;82;20305;-78
2021/05/08 02:19:19;;;;;;;;;;;;;;;15.73;96.34;100312.14;1724012;83;20132;-76
2021/05/08 02:21:48;;;;;;;;;;;;;;;15.73;96.31;100323.41;1723965;83;21282;-79
2021/05/08 02:24:16;;;;;;;;;;;;;;;15.72;96.31;100316.55;1723869;83;20526;-76
2021/05/08 02:26:44;;;;;;;;;;;;;;;15.72;96.36;100319.64;1719466;83;20139;-80
2021/05/08 02:29:13;;;;;;;;;;;;;;;15.71;96.41;100329.28;1725224;82;20137;-80
2021/05/08 02:31:41;;;;;;;;;;;;;;;15.71;96.48;100359.84;1724660;82;20544;-76
2021/05/08 02:34:10;;;;;;;;;;;;;;;15.70;97.35;100414.42;1723513;83;21216;-77
2021/05/08 02:36:39;;;;;;;;;;;;;;;15.59;97.36;100379.28;1724224;83;20225;-76
2021/05/08 02:39:06;;;;;;;;;;;;;;;15.51;97.54;100356.44;1724110;82;20235;-82
2021/05/08 02:41:34;;;;;;;;;;;;;;;15.49;97.70;100357.55;1725180;82;20223;-77
2021/05/08 02:44:04;;;;;;;;;;;;;;;15.47;97.75;100371.22;1723744;83;20489;-77
2021/05/08 02:46:35;;;;;;;;;;;;;;;15.45;98.08;100379.66;1724516;83;21381;-78
2021/05/08 02:49:03;;;;;;;;;;;;;;;15.42;98.36;100386.48;1724096;83;20235;-80
2021/05/08 02:51:31;;;;;;;;;;;;;;;15.40;98.49;100396.27;1723842;83;20211;-75
2021/05/08 02:53:59;;;;;;;;;;;;;;;15.37;98.59;100401.30;1723975;83;20282;-81
2021/05/08 02:56:29;;;;;;;;;;;;;;;15.36;98.63;100403.08;1723607;83;20497;-75
2021/05/08 02:58:57;;;;;;;;;;;;;;;15.36;98.61;100398.33;1724274;83;22128;-80
2021/05/08 03:01:25;;;;;;;;;;;;;;;15.36;98.58;100404.86;1724104;83;20674;-80
2021/05/08 03:03:57;;;;;;;;;;;;;;;15.35;98.53;100407.95;1723786;83;20203;-83
2021/05/08 03:06:25;;;;;;;;;;;;;;;15.36;98.46;100399.16;1725379;83;20183;-80
2021/05/08 03:08:56;;;;;;;;;;;;;;;15.39;98.38;100403.28;1725279;83;20220;-80
2021/05/08 03:11:24;;;;;;;;;;;;;;;15.42;98.17;100404.31;1724452;83;21202;-82
2021/05/08 03:13:53;;;;;;;;;;;;;;;15.43;98.02;100411.67;1725793;82;20164;-83
2021/05/08 03:16:22;;;;;;;;;;;;;;;15.43;97.95;100406.45;1724100;83;20223;-83
2021/05/08 03:18:50;;;;;;;;;;;;;;;15.43;98.19;100412.51;1724498;81;20238;-77
2021/05/08 03:21:20;;;;;;;;;;;;;;;15.45;98.11;100438.50;1725091;83;20231;-82
2021/05/08 03:23:50;;;;;;;;;;;;;;;15.45;98.09;100437.20;1725465;83;21288;-81
2021/05/08 03:26:18;;;;;;;;;;;;;;;15.46;98.09;100447.53;1702031;83;20725;-82
2021/05/08 03:28:47;;;;;;;;;;;;;;;15.49;98.04;100451.69;1724211;82;20330;-80
2021/05/08 03:31:15;;;;;;;;;;;;;;;15.51;97.88;100461.55;1722932;83;20243;-77
2021/05/08 03:33:43;;;;;;;;;;;;;;;15.53;97.77;100469.59;1723880;83;20270;-76
2021/05/08 03:36:11;;;;;;;;;;;;;;;15.51;97.77;100476.73;1723996;83;21153;-76
2021/05/08 03:38:39;;;;;;;;;;;;;;;15.50;97.75;100489.48;1723846;83;20814;-75
2021/05/08 03:41:07;;;;;;;;;;;;;;;15.49;97.74;100488.30;1723787;83;20135;-71
2021/05/08 03:43:35;;;;;;;;;;;;;;;15.47;97.97;100495.44;1723574;83;20797;-75
2021/05/08 03:46:04;;;;;;;;;;;;;;;15.45;98.28;100506.50;1723974;83;20497;-75
2021/05/08 03:48:32;;;;;;;;;;;;;;;15.41;98.62;100495.51;1723988;83;22431;-73
2021/05/08 03:51:00;;;;;;;;;;;;;;;15.38;99.19;100532.86;1724099;83;20247;-76
2021/05/08 03:53:29;;;;;;;;;;;;;;;15.34;100.00;100549.30;1724207;82;20247;-74
2021/05/08 03:55:56;;;;;;;;;;;;;;;15.30;100.00;100585.34;1723983;83;20136;-70
2021/05/08 03:58:28;;;;;;;;;;;;;;;15.23;100.00;100609.05;1723931;83;20136;-72
2021/05/08 04:00:57;;;;;;;;;;;;;;;15.18;100.00;100596.86;1722034;83;21368;-74
2021/05/08 04:03:26;;;;;;;;;;;;;;;15.19;100.00;100619.89;1723788;83;20116;-73
2021/05/08 04:05:53;;;;;;;;;;;;;;;15.20;100.00;100605.86;1723984;83;20155;-72
2021/05/08 04:08:22;;;;;;;;;;;;;;;15.22;100.00;100613.12;1724103;83;20873;-73
2021/05/08 04:10:50;;;;;;;;;;;;;;;15.23;98.68;100625.20;1724161;83;20231;-76
2021/05/08 04:13:18;;;;;;;;;;;;;;;15.21;97.40;100627.97;1724074;83;21217;-75
2021/05/08 04:15:48;;;;;;;;;;;;;;;15.19;97.11;100625.11;1723865;83;20215;-75
2021/05/08 04:18:16;;;;;;;;;;;;;;;15.17;96.34;100630.48;1727683;82;20229;-79
2021/05/08 04:20:45;;;;;;;;;;;;;;;15.16;94.76;100638.45;1734739;82;20178;-75
2021/05/08 04:23:13;;;;;;;;;;;;;;;15.14;93.49;100639.06;1734534;82;20492;-78
2021/05/08 04:25:42;;;;;;;;;;;;;;;15.13;92.82;100640.02;1734583;82;21133;-75
2021/05/08 04:28:12;;;;;;;;;;;;;;;15.11;90.46;100635.41;1734291;82;20218;-73
2021/05/08 04:30:40;;;;;;;;;;;;;;;15.08;89.31;100642.20;1734681;82;20273;-75
2021/05/08 04:33:09;;;;;;;;;;;;;;;15.07;89.87;100649.69;1733106;82;20221;-75
2021/05/08 04:35:37;;;;;;;;;;;;;;;15.03;89.14;100658.77;1734865;82;20461;-73
2021/05/08 04:38:05;;;;;;;;;;;;;;;14.98;88.89;100666.98;1734751;82;22272;-76
2021/05/08 04:40:33;;;;;;;;;;;;;;;14.97;89.61;100669.23;1734605;82;20154;-73
2021/05/08 04:43:02;;;;;;;;;;;;;;;14.95;89.22;100679.00;1734388;82;20504;-74
2021/05/08 04:45:32;;;;;;;;;;;;;;;14.92;89.53;100684.95;1734793;82;20233;-75
2021/05/08 04:48:00;;;;;;;;;;;;;;;14.89;88.91;100694.36;1734628;82;20694;-73
2021/05/08 04:50:28;;;;;;;;;;;;;;;14.85;89.17;100699.02;1734425;82;21206;-74
2021/05/08 04:52:56;;;;;;;;;;;;;;;14.81;88.56;100710.19;1734607;82;20198;-77
2021/05/08 04:55:27;;;;;;;;;;;;;;;14.75;88.14;100716.39;1734592;82;20532;-76
2021/05/08 04:57:55;;;;;;;;;;;;;;;14.67;88.08;100717.05;1734698;82;20222;-76
2021/05/08 05:00:23;;;;;;;;;;;;;;;14.65;88.02;100727.24;1716204;82;20700;-75
2021/05/08 05:02:51;;;;;;;;;;;;;;;14.59;87.47;100732.97;1734805;82;21310;-73
2021/05/08 05:05:20;;;;;;;;;;;;;;;14.52;86.77;100740.47;1734812;82;20700;-72
2021/05/08 05:07:49;;;;;;;;;;;;;;;14.50;85.63;100752.00;1734509;82;20285;-76
2021/05/08 05:10:18;;;;;;;;;;;;;;;14.49;85.03;100760.31;1734730;82;20512;-78
2021/05/08 05:12:47;;;;;;;;;;;;;;;14.46;83.03;100744.05;1734824;82;20512;-73
2021/05/08 05:15:19;;;;;;;;;;;;;;;14.43;82.40;100746.91;1734424;82;21197;-76
2021/05/08 05:17:47;;;;;;;;;;;;;;;14.39;82.16;100760.69;1711996;82;20293;-78
2021/05/08 05:20:15;;;;;;;;;;;;;;;14.36;81.81;100768.77;1734150;82;20182;-72
2021/05/08 05:22:43;;;;;;;;;;;;;;;14.32;82.14;100773.88;1734139;82;20284;-74
2021/05/08 05:25:11;;;;;;;;;;;;;;;14.30;82.69;100778.36;1734545;82;20611;-76
2021/05/08 05:27:40;;;;;;;;;;;;;;;14.27;82.90;100776.00;1734541;82;21206;-72
2021/05/08 05:30:09;;;;;;;;;;;;;;;14.24;83.43;100783.61;1734878;82;20535;-77
2021/05/08 05:32:38;;;;;;;;;;;;;;;14.23;83.74;100798.91;1734723;82;20262;-73
2021/05/08 05:35:08;;;;;;;;;;;;;;;14.24;84.02;100811.48;1734534;82;20250;-78
2021/05/08 05:37:36;;;;;;;;;;;;;;;14.28;83.50;100812.91;1734655;82;20316;-76
2021/05/08 05:40:05;;;;;;;;;;;;;;;14.31;83.84;100820.03;1734492;82;21208;-77
2021/05/08 05:42:33;;;;;;;;;;;;;;;14.38;83.27;100826.09;1733789;82;20289;-76
2021/05/08 05:45:37;;;;;;;;;;;;;;;14.45;83.66;100816.83;1734390;82;20218;-79
2021/05/08 05:48:06;;;;;;;;;;;;;;;14.55;83.77;100822.98;1734138;82;20246;-74
2021/05/08 05:50:39;;;;;;;;;;;;;;;14.69;83.07;100823.53;1734155;82;20225;-76
2021/05/08 05:53:09;;;;;;;;;;;;;;;14.77;81.48;100837.29;1734681;82;21330;-77
2021/05/08 05:55:38;;;;;;;;;;;;;;;14.75;80.82;100847.02;1734701;82;20139;-78
2021/05/08 05:58:06;;;;;;;;;;;;;;;14.74;80.21;100853.22;1734869;82;20508;-75
2021/05/08 06:00:37;;;;;;;;;;;;;;;14.78;80.95;100850.21;1734764;82;20229;-77
2021/05/08 06:03:05;;;;;;;;;;;;;;;14.86;81.82;100856.14;1734806;82;20241;-76
2021/05/08 06:05:33;;;;;;;;;;;;;;;14.95;81.67;100855.86;1734385;82;21214;-77
2021/05/08 06:08:03;;;;;;;;;;;;;;;15.00;80.44;100866.77;1734197;82;20253;-77
2021/05/08 06:10:31;;;;;;;;;;;;;;;14.97;77.65;100868.31;1734658;82;20281;-74
2021/05/08 06:13:00;;;;;;;;;;;;;;;14.88;78.60;100879.05;1734682;82;20299;-79
2021/05/08 06:15:29;;;;;;;;;;;;;;;14.83;78.96;100885.96;1734717;82;20166;-79
2021/05/08 06:17:57;;;;;;;;;;;;;;;14.81;78.88;100894.85;1734553;82;21204;-78
2021/05/08 06:20:27;;;;;;;;;;;;;;;14.74;77.58;100914.10;1734877;82;20713;-78
2021/05/08 06:22:57;;;;;;;;;;;;;;;14.69;76.89;100903.67;1734535;82;20234;-75
2021/05/08 06:25:28;;;;;;;;;;;;;;;14.61;74.40;100889.93;1734572;82;20349;-75
2021/05/08 06:28:00;;;;;;;;;;;;;;;14.59;75.76;100896.20;1734332;82;20524;-79
2021/05/08 06:30:29;;;;;;;;;;;;;;;14.64;74.75;100907.13;1734619;82;20181;-77
2021/05/08 06:32:57;;;;;;;;;;;;;;;14.70;73.12;100911.87;1734609;82;21046;-77
2021/05/08 06:35:25;;;;;;;;;;;;;;;14.78;73.80;100921.22;1734457;82;20230;-77
2021/05/08 06:37:53;;;;;;;;;;;;;;;14.87;73.74;100917.88;1734607;82;20934;-79
2021/05/08 06:40:21;;;;;;;;;;;;;;;14.94;70.94;100921.66;1734579;82;20500;-78
2021/05/08 06:42:48;;;;;;;;;;;;;;;15.05;70.19;100929.96;1734776;82;21216;-76
2021/05/08 06:45:16;;;;;;;;;;;;;;;15.17;70.66;100936.81;1734689;82;20496;-76
2021/05/08 06:47:46;;;;;;;;;;;;;;;15.24;68.30;100932.75;1734547;82;20237;-77
2021/05/08 06:50:16;;;;;;;;;;;;;;;15.23;67.43;100938.45;1734531;82;20246;-77
2021/05/08 06:52:46;;;;;;;;;;;;;;;15.27;67.52;100945.11;1734593;82;20225;-76
2021/05/08 06:55:15;;;;;;;;;;;;;;;15.33;67.45;100949.00;1734400;82;21206;-79
2021/05/08 06:57:42;;;;;;;;;;;;;;;15.42;67.50;100953.47;1734380;82;20245;-75
2021/05/08 07:00:12;;;;;;;;;;;;;;;15.45;66.45;100956.31;1734914;82;20222;-77
2021/05/08 07:02:40;;;;;;;;;;;;;;;15.45;64.13;100964.99;1734765;82;20333;-76
2021/05/08 07:05:10;;;;;;;;;;;;;;;15.38;64.16;100959.90;1734907;82;20238;-79
2021/05/08 07:07:39;;;;;;;;;;;;;;;15.37;64.82;100981.80;1734808;82;20146;-75
2021/05/08 07:10:07;;;;;;;;;;;;;;;15.38;66.51;100994.41;1734649;82;20155;-74
2021/05/08 07:12:36;;;;;;;;;;;;;;;15.43;66.88;100998.77;1735003;82;20172;-77
2021/05/08 07:15:05;;;;;;;;;;;;;;;15.47;67.68;100984.02;1734859;82;20135;-76
2021/05/08 07:17:33;;;;;;;;;;;;;;;15.53;67.30;100994.02;1734537;82;20250;-77
2021/05/08 07:20:03;;;;;;;;;;;;;;;15.59;67.57;101014.92;1736637;82;21208;-76
2021/05/08 07:22:31;;;;;;;;;;;;;;;15.64;66.66;101025.83;1737979;82;20146;-76
2021/05/08 07:24:59;;;;;;;;;;;;;;;15.64;65.08;101025.83;1738258;82;20225;-78
2021/05/08 07:27:26;;;;;;;;;;;;;;;15.52;65.50;101024.21;1738163;82;20217;-75
2021/05/08 07:29:55;;;;;;;;;;;;;;;15.52;66.38;101034.20;1738205;82;20222;-77
2021/05/08 07:32:23;;;;;;;;;;;;;;;15.57;66.12;101041.19;1717377;82;21106;-79
2021/05/08 07:34:53;;;;;;;;;;;;;;;15.58;66.58;101047.25;1737054;82;20221;-82
2021/05/08 07:37:21;;;;;;;;;;;;;;;15.61;66.45;101037.84;1737193;82;20250;-76
2021/05/08 07:39:48;;;;;;;;;;;;;;;15.67;66.43;101055.19;1737029;82;20283;-74
2021/05/08 07:42:16;;;;;;;;;;;;;;;15.68;66.22;101050.80;1737085;82;20563;-74
2021/05/08 07:44:44;;;;;;;;;;;;;;;15.71;65.56;101061.02;1737300;82;21215;-75
2021/05/08 07:47:13;;;;;;;;;;;;;;;15.69;65.21;101069.47;1736927;82;20588;-76
2021/05/08 07:49:41;;;;;;;;;;;;;;;15.58;66.32;101060.33;1737014;82;20189;-74
2021/05/08 07:52:09;;;;;;;;;;;;;;;15.51;66.73;101061.80;1737117;82;20221;-77
2021/05/08 07:54:37;;;;;;;;;;;;;;;15.50;66.56;101071.91;1736870;82;20297;-76
2021/05/08 07:57:05;;;;;;;;;;;;;;;15.49;66.11;101084.14;1736695;82;21208;-75
2021/05/08 07:59:33;;;;;;;;;;;;;;;15.53;65.66;101082.13;1736868;82;20218;-78
2021/05/08 08:02:01;;;;;;;;;;;;;;;15.55;64.92;101084.96;1737069;82;20114;-77
2021/05/08 08:04:29;;;;;;;;;;;;;;;15.59;65.21;101087.70;1737370;82;20349;-77
2021/05/08 08:06:57;;;;;;;;;;;;;;;15.71;64.74;101108.94;1737257;82;20134;-75
2021/05/08 08:09:25;;;;;;;;;;;;;;;15.76;64.47;101105.97;1736625;82;21275;-77
2021/05/08 08:11:53;;;;;;;;;;;;;;;15.75;64.12;101107.75;1737176;82;20134;-76
2021/05/08 08:14:20;;;;;;;;;;;;;;;15.76;62.17;101113.31;1737019;82;20524;-77
2021/05/08 08:16:50;;;;;;;;;;;;;;;15.76;61.72;101117.75;1737039;82;20238;-73
2021/05/08 08:19:17;;;;;;;;;;;;;;;15.76;63.35;101120.36;1733074;82;20255;-79
2021/05/08 08:21:46;;;;;;;;;;;;;;;15.82;62.11;101141.64;1724029;83;22139;-76
2021/05/08 08:24:14;;;;;;;;;;;;;;;15.79;62.12;101141.86;1723903;83;20530;-76
2021/05/08 08:26:42;;;;;;;;;;;;;;;15.69;62.43;101139.64;1723996;83;20187;-78
2021/05/08 08:29:09;;;;;;;;;;;;;;;15.56;62.56;101136.34;1724053;83;20765;-78
2021/05/08 08:31:38;;;;;;;;;;;;;;;15.50;62.91;101144.67;1724081;83;20235;-75
2021/05/08 08:34:05;;;;;;;;;;;;;;;15.47;62.82;101150.11;1723986;83;21194;-73
2021/05/08 08:36:33;;;;;;;;;;;;;;;15.49;63.30;101146.08;1723716;83;20558;-77
2021/05/08 08:39:04;;;;;;;;;;;;;;;15.55;62.78;101145.59;1723476;83;20223;-72
2021/05/08 08:41:34;;;;;;;;;;;;;;;15.60;63.51;101153.94;1724228;83;20155;-77
2021/05/08 08:44:09;;;;;;;;;;;;;;;15.67;63.54;101162.94;1723904;83;20516;-76
2021/05/08 08:46:32;;;;;;;;;;;;;;;15.72;61.27;101161.64;1723362;83;21220;-76
2021/05/08 08:49:00;;;;;;;;;;;;;;;15.57;59.86;101165.95;1723856;83;20165;-75
2021/05/08 08:51:27;;;;;;;;;;;;;;;15.41;59.22;101171.99;1701667;83;20184;-73
2021/05/08 08:53:55;;;;;;;;;;;;;;;15.34;57.46;101175.09;1724052;83;20496;-72
2021/05/08 08:56:23;;;;;;;;;;;;;;;15.38;56.96;101164.72;1724614;82;20270;-76
2021/05/08 08:58:56;;;;;;;;;;;;;;;15.50;55.86;101169.52;1724144;83;21217;-77
2021/05/08 09:01:23;;;;;;;;;;;;;;;15.67;53.43;101188.63;1723880;83;20528;-77
2021/05/08 09:03:51;;;;;;;;;;;;;;;15.77;54.25;101196.11;1724144;83;20486;-77
2021/05/08 09:06:20;;;;;;;;;;;;;;;16.00;51.62;101203.45;1723659;83;20223;-75
2021/05/08 09:08:48;;;;;;;;;;;;;;;15.96;51.55;101211.18;1724040;82;20231;-78
2021/05/08 09:11:21;;;;;;;;;;;;;;;15.88;52.93;101214.91;1723394;83;21208;-77
2021/05/08 09:14:15;;;;;;;;;;;;;;;15.80;50.40;101216.80;1724012;83;20199;-75
2021/05/08 09:17:10;;;;;;;;;;;;;;;15.76;51.30;101215.88;1724015;83;20225;-73
2021/05/08 09:19:59;;;;;;;;;;;;;;;15.77;50.70;101220.13;1723071;83;20164;-74
2021/05/08 09:22:33;;;;;;;;;;;;;;;15.72;51.27;101220.52;1723968;81;20257;-76
2021/05/08 09:25:06;;;;;;;;;;;;;;;15.52;51.68;101212.07;1724054;83;22135;-75
2021/05/08 09:27:47;;;;;;;;;;;;;;;15.46;53.88;101222.14;1723793;83;20226;-78
2021/05/08 09:30:19;;;;;;;;;;;;;;;15.34;52.65;101223.47;1724009;83;20191;-76
2021/05/08 09:32:53;;;;;;;;;;;;;;;15.19;53.82;101215.94;1723979;83;20140;-82
2021/05/08 09:35:23;;;;;;;;;;;;;;;15.20;53.37;101216.30;1723977;83;20313;-75
2021/05/08 09:37:54;;;;;;;;;;;;;;;15.21;54.48;101214.89;1723989;83;21149;-77
2021/05/08 09:40:25;;;;;;;;;;;;;;;15.29;53.55;101218.20;1724051;83;20231;-79
2021/05/08 09:42:56;;;;;;;;;;;;;;;15.28;52.27;101222.59;1724020;83;20185;-78
2021/05/08 09:45:26;;;;;;;;;;;;;;;15.23;52.26;101209.06;1723916;83;20140;-72
2021/05/08 09:47:54;;;;;;;;;;;;;;;15.19;53.56;101208.09;1724025;83;20235;-78
2021/05/08 09:50:24;;;;;;;;;;;;;;;15.17;52.66;101217.84;1723858;83;21206;-73
2021/05/08 09:52:53;;;;;;;;;;;;;;;15.16;53.32;101216.17;1723811;83;20588;-75
2021/05/08 09:55:24;;;;;;;;;;;;;;;15.18;53.58;101217.74;1723879;83;20266;-77
2021/05/08 09:58:02;;;;;;;;;;;;;;;15.28;53.50;101219.98;1701159;83;39423;-76
2021/05/08 10:00:34;;;;;;;;;;;;;;;15.38;53.40;101220.95;1724077;83;20178;-76
2021/05/08 10:03:07;;;;;;;;;;;;;;;15.47;51.48;101222.52;1724181;83;21212;-80
2021/05/08 10:05:34;;;;;;;;;;;;;;;15.47;50.96;101227.27;1723959;83;20219;-75
2021/05/08 10:08:03;;;;;;;;;;;;;;;15.34;50.07;101232.62;1723815;83;20159;-79
2021/05/08 10:10:31;;;;;;;;;;;;;;;15.28;52.04;101235.67;1724105;83;20227;-76
2021/05/08 10:12:58;;;;;;;;;;;;;;;15.38;52.58;101236.64;1724030;83;20494;-81
2021/05/08 10:15:28;;;;;;;;;;;;;;;15.47;52.23;101244.75;1723768;83;20163;-76
2021/05/08 10:17:57;;;;;;;;;;;;;;;15.51;52.26;101239.67;1723791;83;20250;-74
2021/05/08 10:20:25;;;;;;;;;;;;;;;15.57;51.86;101245.73;1718695;83;20608;-77
2021/05/08 10:22:57;;;;;;;;;;;;;;;15.51;51.34;101250.14;1711200;83;20937;-80
2021/05/08 10:25:25;;;;;;;;;;;;;;;15.44;52.08;101246.30;1711330;84;20279;-73
2021/05/08 10:27:53;;;;;;;;;;;;;;;15.43;52.29;101250.69;1711147;84;21135;-82
2021/05/08 10:30:33;;;;;;;;;;;;;;;15.47;52.59;101251.28;1711170;84;20187;-72
2021/05/08 10:33:13;;;;;;;;;;;;;;;15.50;52.07;101253.23;1710114;83;20279;-74
2021/05/08 10:35:51;;;;;;;;;;;;;;;15.49;52.28;101254.16;1711495;84;20279;-78
2021/05/08 10:38:23;;;;;;;;;;;;;;;15.61;53.02;101249.76;1711247;84;20219;-72
2021/05/08 10:41:03;;;;;;;;;;;;;;;15.81;52.88;101245.12;1711150;84;21202;-79
2021/05/08 10:43:47;;;;;;;;;;;;;;;15.94;51.39;101248.91;1711070;84;20168;-75
2021/05/08 10:46:17;;;;;;;;;;;;;;;15.92;50.80;101239.89;1711068;84;20222;-71
2021/05/08 10:49:09;;;;;;;;;;;;;;;15.99;51.77;101241.52;1711146;84;20320;-74
2021/05/08 10:51:58;;;;;;;;;;;;;;;16.07;51.43;101246.98;1710192;84;20518;-74
2021/05/08 10:54:42;;;;;;;;;;;;;;;16.07;50.87;101248.30;1711240;84;20537;-75
2021/05/08 10:57:16;;;;;;;;;;;;;;;16.10;51.94;101241.50;1711021;84;20311;-78
2021/05/08 11:02:59;;;;;;;;;;;;;;;16.28;50.55;101238.23;1922577;73;20273;-75
2021/05/08 11:05:35;;;;;;;;;;;;;;;16.27;50.56;101242.31;1891901;76;20124;-78
2021/05/08 11:08:28;;;;;;;;;;;;;;;16.32;49.97;101243.59;1892057;76;21169;-79
2021/05/08 11:10:59;;;;;;;;;;;;;;;16.38;50.33;101247.50;1883277;76;20108;-80
2021/05/08 11:13:30;;;;;;;;;;;;;;;16.41;50.24;101252.48;1892428;76;20168;-78
2021/05/08 11:16:13;;;;;;;;;;;;;;;16.50;51.18;101250.42;1884315;76;20132;-81
2021/05/08 11:18:51;;;;;;;;;;;;;;;16.64;51.01;101250.65;1892201;76;20617;-73
2021/05/08 11:21:23;;;;;;;;;;;;;;;16.69;49.10;101255.02;1892064;76;21173;-77
2021/05/08 11:23:58;;;;;;;;;;;;;;;16.63;48.51;101256.36;1887597;76;20622;-82
2021/05/08 11:26:30;;;;;;;;;;;;;;;16.66;48.80;101262.66;1891901;75;20120;-81
2021/05/08 11:29:20;;;;;;;;;;;;;;;16.69;49.23;101268.96;1892112;76;20104;-79
2021/05/08 11:31:54;;;;;;;;;;;;;;;16.78;49.75;101257.72;1892083;75;20192;-75
2021/05/08 11:34:23;;;;;;;;;;;;;;;16.91;48.51;101263.61;1892108;76;21347;-73
2021/05/08 11:37:01;;;;;;;;;;;;;;;16.91;47.72;101265.43;1892147;76;20207;-75
2021/05/08 11:39:36;;;;;;;;;;;;;;;16.78;47.07;101265.58;1892065;75;20128;-75
2021/05/08 11:42:15;;;;;;;;;;;;;;;16.70;47.21;101260.16;1891960;76;20208;-78
2021/05/08 11:44:49;;;;;;;;;;;;;;;16.70;48.19;101258.00;1892067;76;20147;-74
2021/05/08 11:47:28;;;;;;;;;;;;;;;16.79;48.49;101262.48;1891519;76;21221;-74
2021/05/08 11:50:11;;;;;;;;;;;;;;;16.90;48.51;101258.52;1891824;76;20501;-79
2021/05/08 11:52:42;;;;;;;;;;;;;;;16.98;48.66;101263.94;1891828;76;20120;-73
2021/05/08 11:55:19;;;;;;;;;;;;;;;17.04;49.58;101258.18;1891886;76;20151;-76
2021/05/08 11:57:58;;;;;;;;;;;;;;;17.15;47.38;101259.91;1892014;76;20262;-73
2021/05/08 12:00:31;;;;;;;;;;;;;;;17.21;46.04;101264.64;1891882;75;21171;-74
2021/05/08 12:03:15;;;;;;;;;;;;;;;17.22;46.82;101259.76;1907613;75;20525;-80
2021/05/08 12:05:45;;;;;;;;;;;;;;;17.37;48.29;101257.98;1908499;75;20474;-76
2021/05/08 12:08:14;;;;;;;;;;;;;;;17.68;47.57;101269.33;1908378;75;20587;-75
2021/05/08 12:10:45;;;;;;;;;;;;;;;17.81;45.50;101269.94;1908195;75;20128;-74
2021/05/08 12:13:14;;;;;;;;;;;;;;;17.96;45.46;101269.91;1907941;75;21380;-74
2021/05/08 12:15:45;;;;;;;;;;;;;;;18.07;46.53;101270.77;1907532;75;20136;-76
2021/05/08 12:18:14;;;;;;;;;;;;;;;18.16;47.22;101280.47;1907773;75;20195;-74
2021/05/08 12:20:43;;;;;;;;;;;;;;;18.12;46.47;101276.47;1907437;75;20103;-78
2021/05/08 12:23:13;;;;;;;;;;;;;;;18.35;46.95;101273.45;1907625;75;20194;-72
2021/05/08 12:25:42;;;;;;;;;;;;;;;18.71;44.15;101271.16;1878326;75;21134;-78
2021/05/08 12:28:19;;;;;;;;;;;;;;;18.95;42.56;101278.95;1907331;75;20104;-80
2021/05/08 12:30:48;;;;;;;;;;;;;;;19.10;41.67;101278.06;1907815;75;20123;-77
2021/05/08 12:33:22;;;;;;;;;;;;;;;19.41;40.17;101272.13;1907633;75;20155;-76
2021/05/08 12:35:52;;;;;;;;;;;;;;;19.47;39.03;101282.08;1907557;75;20213;-75
2021/05/08 12:38:25;;;;;;;;;;;;;;;19.33;37.17;101283.83;1907711;75;21063;-80
2021/05/08 12:40:53;;;;;;;;;;;;;;;19.33;38.19;101282.03;1907549;75;20573;-77
2021/05/08 12:43:26;;;;;;;;;;;;;;;19.35;36.08;101286.66;1907515;75;20104;-77
2021/05/08 12:46:05;;;;;;;;;;;;;;;19.41;35.16;101282.17;1907875;75;20505;-78
2021/05/08 12:48:38;;;;;;;;;;;;;;;19.56;34.39;101282.53;1907766;75;20325;-80
2021/05/08 12:51:30;;;;;;;;;;;;;;;19.63;33.77;101289.36;1907691;75;20662;-77
2021/05/08 12:54:17;;;;;;;;;;;;;;;19.58;34.50;101283.23;1907598;75;20128;-76